Time,TemperatureF,DewpointF,PressureIn,WindDirection,WindDirectionDegrees,WindSpeedMPH,WindSpeedGustMPH,Humidity,HourlyPrecipIn,Conditions,Clouds,dailyrainin,SoftwareType,DateUTC
2013-02-23 00:00:00,39.6,38.8,29.85,ENE,65,0.0,0.0,97,0.06,,,0.99,Wunderground v.1.15,2013-02-23 05:00:00,
2013-02-23 00:05:00,39.7,38.9,29.84,ENE,65,0.0,0.0,97,0.05,,,0.00,Wunderground v.1.15,2013-02-23 05:05:00,
2013-02-23 00:10:00,39.7,38.9,29.84,ENE,65,0.0,4.0,97,0.05,,,0.00,Wunderground v.1.15,2013-02-23 05:10:00,
2013-02-23 00:20:00,39.7,38.9,29.82,ENE,65,1.0,1.0,97,0.00,,,0.00,Wunderground v.1.15,2013-02-23 05:20:00,
2013-02-23 00:25:00,39.7,38.9,29.82,ENE,67,1.0,4.0,97,0.00,,,0.00,Wunderground v.1.15,2013-02-23 05:25:00,
2013-02-23 00:31:00,39.6,38.8,29.81,ENE,71,2.0,2.0,97,0.00,,,0.00,Wunderground v.1.15,2013-02-23 05:31:00,
2013-02-23 00:40:00,39.6,38.8,29.80,ENE,67,1.0,1.0,97,0.00,,,0.00,Wunderground v.1.15,2013-02-23 05:40:00,
2013-02-23 00:46:00,39.6,38.8,29.80,ENE,67,1.0,3.0,97,0.00,,,0.00,Wunderground v.1.15,2013-02-23 05:46:00,
2013-02-23 00:56:00,39.7,38.9,29.80,NE,50,1.0,2.0,97,0.00,,,0.01,Wunderground v.1.15,2013-02-23 05:56:00,
2013-02-23 01:05:00,39.7,38.9,29.78,NE,51,1.0,1.0,97,0.00,,,0.01,Wunderground v.1.15,2013-02-23 06:05:00,
2013-02-23 01:10:00,39.8,39.0,29.80,NE,49,1.0,1.0,97,0.00,,,0.01,Wunderground v.1.15,2013-02-23 06:10:00,
2013-02-23 01:16:00,39.8,39.3,29.83,NNE,24,2.0,2.0,98,0.00,,,0.01,Wunderground v.1.15,2013-02-23 06:16:00,
2013-02-23 01:21:00,40.0,39.5,29.83,NNE,24,1.0,1.0,98,0.00,,,0.01,Wunderground v.1.15,2013-02-23 06:21:00,
2013-02-23 01:30:00,40.0,39.5,29.82,ENE,72,1.0,1.0,98,0.21,,,0.04,Wunderground v.1.15,2013-02-23 06:30:00,
2013-02-23 01:40:00,40.0,39.5,29.82,ENE,72,0.0,0.0,98,0.10,,,0.06,Wunderground v.1.15,2013-02-23 06:40:00,
2013-02-23 01:46:00,39.9,39.4,29.83,ENE,72,0.0,1.0,98,0.08,,,0.06,Wunderground v.1.15,2013-02-23 06:46:00,
2013-02-23 01:55:00,39.8,39.3,29.82,ENE,72,0.0,2.0,98,0.15,,,0.08,Wunderground v.1.15,2013-02-23 06:55:00,
2013-02-23 02:01:00,39.9,39.4,29.82,ENE,72,0.0,0.0,98,0.20,,,0.10,Wunderground v.1.15,2013-02-23 07:01:00,
2013-02-23 02:06:00,39.9,39.4,29.81,ENE,72,0.0,0.0,98,0.10,,,0.11,Wunderground v.1.15,2013-02-23 07:06:00,
2013-02-23 02:31:00,39.9,39.4,29.78,ENE,67,1.0,1.0,98,0.09,,,0.14,Wunderground v.1.15,2013-02-23 07:31:00,
2013-02-23 02:41:00,39.9,39.4,29.75,ENE,68,2.0,4.0,98,0.06,,,0.15,Wunderground v.1.15,2013-02-23 07:41:00,
2013-02-23 02:50:00,40.0,39.5,29.76,ENE,68,1.0,1.0,98,0.07,,,0.16,Wunderground v.1.15,2013-02-23 07:50:00,
2013-02-23 02:55:00,40.0,39.5,29.75,ENE,68,1.0,1.0,98,0.06,,,0.17,Wunderground v.1.15,2013-02-23 07:55:00,
2013-02-23 03:01:00,40.0,39.5,29.75,ENE,68,1.0,1.0,98,0.12,,,0.18,Wunderground v.1.15,2013-02-23 08:01:00,
2013-02-23 03:11:00,40.1,39.6,29.76,ENE,67,1.0,1.0,98,0.06,,,0.19,Wunderground v.1.15,2013-02-23 08:11:00,
2013-02-23 03:20:00,40.1,39.6,29.75,ENE,67,0.0,1.0,98,0.00,,,0.19,Wunderground v.1.15,2013-02-23 08:20:00,
2013-02-23 03:25:00,40.1,39.6,29.74,ENE,67,1.0,1.0,98,0.00,,,0.20,Wunderground v.1.15,2013-02-23 08:25:00,
2013-02-23 03:30:00,40.2,39.7,29.75,ENE,67,1.0,2.0,98,0.00,,,0.20,Wunderground v.1.15,2013-02-23 08:30:00,
2013-02-23 03:35:00,40.2,39.7,29.76,ENE,67,1.0,2.0,98,0.00,,,0.20,Wunderground v.1.15,2013-02-23 08:35:00,
2013-02-23 03:40:00,40.4,39.9,29.74,ENE,67,1.0,1.0,98,0.00,,,0.20,Wunderground v.1.15,2013-02-23 08:40:00,
2013-02-23 03:46:00,40.4,39.9,29.70,ESE,108,1.0,3.0,98,0.00,,,0.20,Wunderground v.1.15,2013-02-23 08:46:00,
2013-02-23 03:55:00,40.2,39.7,29.70,NNE,31,2.0,4.0,98,0.25,,,0.25,Wunderground v.1.15,2013-02-23 08:55:00,
2013-02-23 04:00:00,40.1,39.6,29.69,ENE,65,2.0,3.0,98,0.22,,,0.27,Wunderground v.1.15,2013-02-23 09:00:00,
2013-02-23 04:05:00,40.1,39.6,29.71,ENE,62,2.0,3.0,98,0.15,,,0.28,Wunderground v.1.15,2013-02-23 09:05:00,
2013-02-23 04:11:00,40.2,39.7,29.71,ENE,61,1.0,2.0,98,0.12,,,0.29,Wunderground v.1.15,2013-02-23 09:11:00,
2013-02-23 04:20:00,40.4,39.9,29.73,NE,54,1.0,2.0,98,0.08,,,0.30,Wunderground v.1.15,2013-02-23 09:20:00,
2013-02-23 04:25:00,40.5,40.0,29.72,NE,54,1.0,2.0,98,0.18,,,0.32,Wunderground v.1.15,2013-02-23 09:25:00,
2013-02-23 04:31:00,40.6,40.1,29.71,NE,54,0.0,0.0,98,0.27,,,0.34,Wunderground v.1.15,2013-02-23 09:31:00,
2013-02-23 04:36:00,40.6,40.1,29.70,NE,54,0.0,0.0,98,0.40,,,0.38,Wunderground v.1.15,2013-02-23 09:36:00,
2013-02-23 04:45:00,40.6,40.1,29.70,NE,54,0.0,0.0,98,0.11,,,0.39,Wunderground v.1.15,2013-02-23 09:45:00,
2013-02-23 04:50:00,40.6,40.1,29.70,NE,54,0.0,0.0,98,0.06,,,0.39,Wunderground v.1.15,2013-02-23 09:50:00,
2013-02-23 04:55:00,40.7,40.2,29.70,NE,54,0.0,2.0,98,0.05,,,0.40,Wunderground v.1.15,2013-02-23 09:55:00,
2013-02-23 05:01:00,40.8,40.3,29.71,NE,54,0.0,0.0,98,0.05,,,0.40,Wunderground v.1.15,2013-02-23 10:01:00,
2013-02-23 05:10:00,40.9,40.4,29.70,NE,54,0.0,0.0,98,0.00,,,0.40,Wunderground v.1.15,2013-02-23 10:10:00,
2013-02-23 05:15:00,41.0,40.5,29.70,NE,54,0.0,0.0,98,0.00,,,0.41,Wunderground v.1.15,2013-02-23 10:15:00,
2013-02-23 05:20:00,41.0,40.5,29.69,NE,54,0.0,0.0,98,0.00,,,0.41,Wunderground v.1.15,2013-02-23 10:20:00,
2013-02-23 05:26:00,41.1,40.6,29.70,NE,54,0.0,0.0,98,0.00,,,0.41,Wunderground v.1.15,2013-02-23 10:26:00,
2013-02-23 05:35:00,41.1,40.6,29.69,NE,54,0.0,1.0,98,0.00,,,0.41,Wunderground v.1.15,2013-02-23 10:35:00,
2013-02-23 05:40:00,41.1,40.6,29.68,NE,54,0.0,2.0,98,0.00,,,0.42,Wunderground v.1.15,2013-02-23 10:40:00,
2013-02-23 05:45:00,41.1,40.6,29.68,NE,54,1.0,2.0,98,0.00,,,0.42,Wunderground v.1.15,2013-02-23 10:45:00,
2013-02-23 05:50:00,41.0,40.5,29.69,NE,54,2.0,2.0,98,0.00,,,0.42,Wunderground v.1.15,2013-02-23 10:50:00,
2013-02-23 05:55:00,41.1,40.6,29.69,NE,54,1.0,2.0,98,0.00,,,0.42,Wunderground v.1.15,2013-02-23 10:55:00,
2013-02-23 06:01:00,41.1,40.6,29.70,NE,54,0.0,0.0,98,0.00,,,0.43,Wunderground v.1.15,2013-02-23 11:01:00,
2013-02-23 06:10:00,41.0,40.5,29.70,NE,54,0.0,0.0,98,0.00,,,0.43,Wunderground v.1.15,2013-02-23 11:10:00,
2013-02-23 06:16:00,41.1,40.6,29.70,NE,54,0.0,0.0,98,0.00,,,0.43,Wunderground v.1.15,2013-02-23 11:16:00,
2013-02-23 06:25:00,41.2,40.7,29.70,NE,54,0.0,0.0,98,0.19,,,0.46,Wunderground v.1.15,2013-02-23 11:25:00,
2013-02-23 06:31:00,41.1,40.6,29.69,NE,54,0.0,0.0,98,0.10,,,0.46,Wunderground v.1.15,2013-02-23 11:31:00,
2013-02-23 06:40:00,41.1,40.6,29.70,NE,54,0.0,1.0,98,0.05,,,0.47,Wunderground v.1.15,2013-02-23 11:40:00,
2013-02-23 06:45:00,41.0,40.5,29.70,NE,55,0.0,1.0,98,0.05,,,0.47,Wunderground v.1.15,2013-02-23 11:45:00,
2013-02-23 06:50:00,41.0,40.5,29.70,NE,55,0.0,0.0,98,0.04,,,0.47,Wunderground v.1.15,2013-02-23 11:50:00,
2013-02-23 06:55:00,40.9,40.4,29.70,NE,55,0.0,0.0,98,0.00,,,0.47,Wunderground v.1.15,2013-02-23 11:55:00,
2013-02-23 07:01:00,40.9,40.4,29.71,NE,56,0.0,0.0,98,0.00,,,0.47,Wunderground v.1.15,2013-02-23 12:01:00,
2013-02-23 07:06:00,40.9,40.4,29.71,NE,56,0.0,1.0,98,0.00,,,0.48,Wunderground v.1.15,2013-02-23 12:06:00,
2013-02-23 07:16:00,40.9,40.4,29.72,ENE,58,1.0,1.0,98,0.00,,,0.48,Wunderground v.1.15,2013-02-23 12:16:00,
2013-02-23 07:25:00,40.9,40.4,29.72,ENE,58,0.0,2.0,98,0.00,,,0.48,Wunderground v.1.15,2013-02-23 12:25:00,
2013-02-23 07:30:00,40.9,40.4,29.72,ENE,60,1.0,2.0,98,0.00,,,0.49,Wunderground v.1.15,2013-02-23 12:30:00,
2013-02-23 07:35:00,40.9,40.4,29.72,East,89,1.0,1.0,98,0.00,,,0.49,Wunderground v.1.15,2013-02-23 12:35:00,
2013-02-23 07:40:00,40.8,40.3,29.73,SSW,198,2.0,2.0,98,0.00,,,0.49,Wunderground v.1.15,2013-02-23 12:40:00,
2013-02-23 07:46:00,40.7,40.2,29.74,SSW,203,2.0,4.0,98,0.04,,,0.50,Wunderground v.1.15,2013-02-23 12:46:00,
2013-02-23 07:55:00,40.6,40.1,29.74,SSW,203,1.0,2.0,98,0.05,,,0.50,Wunderground v.1.15,2013-02-23 12:55:00,
2013-02-23 08:01:00,40.7,40.2,29.74,SSW,212,2.0,3.0,98,0.05,,,0.51,Wunderground v.1.15,2013-02-23 13:01:00,
2013-02-23 08:10:00,40.7,40.2,29.74,SW,220,4.0,4.0,98,0.06,,,0.52,Wunderground v.1.15,2013-02-23 13:10:00,
2013-02-23 08:16:00,40.7,40.2,29.75,West,272,3.0,4.0,98,0.05,,,0.52,Wunderground v.1.15,2013-02-23 13:16:00,
2013-02-23 08:25:00,40.6,40.1,29.75,SW,234,2.0,3.0,98,0.00,,,0.52,Wunderground v.1.15,2013-02-23 13:25:00,
2013-02-23 08:30:00,40.5,40.0,29.75,SW,234,1.0,1.0,98,0.00,,,0.52,Wunderground v.1.15,2013-02-23 13:30:00,
2013-02-23 08:40:00,40.5,40.0,29.74,SW,234,0.0,0.0,98,0.00,,,0.53,Wunderground v.1.15,2013-02-23 13:40:00,
2013-02-23 08:46:00,40.6,40.1,29.74,SW,234,0.0,0.0,98,0.00,,,0.53,Wunderground v.1.15,2013-02-23 13:46:00,
2013-02-23 08:55:00,40.7,40.2,29.74,SW,234,0.0,2.0,98,0.00,,,0.53,Wunderground v.1.15,2013-02-23 13:55:00,
2013-02-23 09:01:00,40.9,40.4,29.73,SSE,147,1.0,2.0,98,0.00,,,0.53,Wunderground v.1.15,2013-02-23 14:01:00,
2013-02-23 09:10:00,41.1,40.6,29.72,SE,145,0.0,1.0,98,0.00,,,0.53,Wunderground v.1.15,2013-02-23 14:10:00,
2013-02-23 09:16:00,41.3,40.8,29.72,ESE,103,1.0,1.0,98,0.00,,,0.53,Wunderground v.1.15,2013-02-23 14:16:00,
2013-02-23 09:25:00,41.4,40.9,29.72,East,81,1.0,1.0,98,0.00,,,0.53,Wunderground v.1.15,2013-02-23 14:25:00,
2013-02-23 09:30:00,41.6,41.1,29.72,East,81,1.0,1.0,98,0.00,,,0.53,Wunderground v.1.15,2013-02-23 14:30:00,
2013-02-23 09:40:00,41.6,41.1,29.72,East,81,0.0,0.0,98,0.00,,,0.53,Wunderground v.1.15,2013-02-23 14:40:00,
2013-02-23 09:45:00,41.9,41.4,29.72,East,81,0.0,0.0,98,0.00,,,0.54,Wunderground v.1.15,2013-02-23 14:45:00,
2013-02-23 09:55:00,42.6,42.1,29.72,East,85,1.0,2.0,98,0.00,,,0.54,Wunderground v.1.15,2013-02-23 14:55:00,
2013-02-23 10:00:00,42.4,41.9,29.71,East,85,1.0,1.0,98,0.00,,,0.54,Wunderground v.1.15,2013-02-23 15:00:00,
2013-02-23 10:05:00,42.3,41.8,29.72,East,81,1.0,3.0,98,0.00,,,0.54,Wunderground v.1.15,2013-02-23 15:05:00,
2013-02-23 10:10:00,42.4,41.9,29.71,East,81,1.0,1.0,98,0.00,,,0.54,Wunderground v.1.15,2013-02-23 15:10:00,
2013-02-23 10:16:00,42.6,42.1,29.71,East,81,1.0,1.0,98,0.00,,,0.54,Wunderground v.1.15,2013-02-23 15:16:00,
2013-02-23 10:25:00,42.8,42.3,29.72,East,81,0.0,0.0,98,0.00,,,0.54,Wunderground v.1.15,2013-02-23 15:25:00,
2013-02-23 10:30:00,42.8,42.3,29.71,East,81,0.0,0.0,98,0.00,,,0.54,Wunderground v.1.15,2013-02-23 15:30:00,
2013-02-23 10:35:00,43.0,42.5,29.71,East,81,0.0,0.0,98,0.00,,,0.54,Wunderground v.1.15,2013-02-23 15:35:00,
2013-02-23 10:40:00,43.5,43.0,29.71,East,81,0.0,0.0,98,0.00,,,0.54,Wunderground v.1.15,2013-02-23 15:40:00,
2013-02-23 10:46:00,43.3,42.8,29.72,East,81,0.0,0.0,98,0.00,,,0.54,Wunderground v.1.15,2013-02-23 15:46:00,
2013-02-23 10:55:00,43.7,43.2,29.72,East,81,0.0,0.0,98,0.00,,,0.54,Wunderground v.1.15,2013-02-23 15:55:00,
2013-02-23 11:01:00,43.6,43.1,29.72,East,81,0.0,0.0,98,0.00,,,0.54,Wunderground v.1.15,2013-02-23 16:01:00,
2013-02-23 11:10:00,43.8,43.3,29.72,East,81,0.0,0.0,98,0.00,,,0.54,Wunderground v.1.15,2013-02-23 16:10:00,
2013-02-23 11:16:00,44.1,43.6,29.72,East,81,0.0,0.0,98,0.00,,,0.54,Wunderground v.1.15,2013-02-23 16:16:00,
2013-02-23 11:25:00,44.7,44.2,29.71,East,81,0.0,0.0,98,0.00,,,0.54,Wunderground v.1.15,2013-02-23 16:25:00,
2013-02-23 11:30:00,44.9,44.4,29.72,East,81,0.0,0.0,98,0.00,,,0.54,Wunderground v.1.15,2013-02-23 16:30:00,
2013-02-23 11:35:00,45.1,44.6,29.71,East,81,0.0,0.0,98,0.00,,,0.54,Wunderground v.1.15,2013-02-23 16:35:00,
2013-02-23 11:40:00,45.4,44.9,29.71,East,81,0.0,0.0,98,0.00,,,0.54,Wunderground v.1.15,2013-02-23 16:40:00,
2013-02-23 11:46:00,45.6,45.1,29.71,East,81,0.0,0.0,98,0.00,,,0.54,Wunderground v.1.15,2013-02-23 16:46:00,
2013-02-23 11:55:00,45.4,44.6,29.70,East,81,0.0,0.0,97,0.00,,,0.54,Wunderground v.1.15,2013-02-23 16:55:00,
2013-02-23 12:01:00,45.4,44.6,29.70,East,81,0.0,0.0,97,0.00,,,0.54,Wunderground v.1.15,2013-02-23 17:01:00,
2013-02-23 12:10:00,45.9,45.1,29.69,East,81,0.0,0.0,97,0.00,,,0.54,Wunderground v.1.15,2013-02-23 17:10:00,
2013-02-23 12:16:00,45.8,45.0,29.69,East,81,0.0,0.0,97,0.00,,,0.54,Wunderground v.1.15,2013-02-23 17:16:00,
2013-02-23 12:25:00,45.9,44.8,29.69,East,81,0.0,0.0,96,0.00,,,0.54,Wunderground v.1.15,2013-02-23 17:25:00,
2013-02-23 12:30:00,46.0,44.9,29.69,East,81,0.0,0.0,96,0.00,,,0.54,Wunderground v.1.15,2013-02-23 17:30:00,
2013-02-23 12:36:00,46.2,45.1,29.69,East,81,0.0,0.0,96,0.00,,,0.54,Wunderground v.1.15,2013-02-23 17:36:00,
2013-02-23 12:40:00,46.2,45.1,29.69,East,81,0.0,0.0,96,0.00,,,0.54,Wunderground v.1.15,2013-02-23 17:40:00,
2013-02-23 12:46:00,46.3,45.2,29.69,East,81,0.0,0.0,96,0.00,,,0.54,Wunderground v.1.15,2013-02-23 17:46:00,
2013-02-23 12:55:00,46.3,45.2,29.69,East,81,0.0,0.0,96,0.00,,,0.54,Wunderground v.1.15,2013-02-23 17:55:00,
2013-02-23 13:00:00,46.3,45.2,29.69,East,81,0.0,0.0,96,0.00,,,0.54,Wunderground v.1.15,2013-02-23 18:00:00,
2013-02-23 13:05:00,46.7,45.6,29.69,East,81,0.0,1.0,96,0.00,,,0.54,Wunderground v.1.15,2013-02-23 18:05:00,
2013-02-23 13:11:00,46.6,45.5,29.69,East,81,0.0,1.0,96,0.00,,,0.54,Wunderground v.1.15,2013-02-23 18:11:00,
2013-02-23 13:16:00,47.0,45.9,29.68,East,81,1.0,1.0,96,0.00,,,0.54,Wunderground v.1.15,2013-02-23 18:16:00,
2013-02-23 13:25:00,46.8,45.4,29.68,SE,132,0.0,3.0,95,0.00,,,0.54,Wunderground v.1.15,2013-02-23 18:25:00,
2013-02-23 13:31:00,47.1,45.7,29.68,SE,133,1.0,1.0,95,0.00,,,0.54,Wunderground v.1.15,2013-02-23 18:31:00,
2013-02-23 13:41:00,47.6,46.2,29.68,SE,135,1.0,1.0,95,0.00,,,0.54,Wunderground v.1.15,2013-02-23 18:41:00,
2013-02-23 13:46:00,47.7,46.3,29.68,SSE,158,1.0,1.0,95,0.00,,,0.54,Wunderground v.1.15,2013-02-23 18:46:00,
2013-02-23 13:55:00,47.6,46.2,29.67,SSE,158,1.0,1.0,95,0.00,,,0.54,Wunderground v.1.15,2013-02-23 18:55:00,
2013-02-23 14:00:00,47.7,46.3,29.67,SSE,158,0.0,0.0,95,0.00,,,0.54,Wunderground v.1.15,2013-02-23 19:00:00,
2013-02-23 14:10:00,47.7,46.3,29.67,SSE,158,0.0,0.0,95,0.00,,,0.54,Wunderground v.1.15,2013-02-23 19:10:00,
2013-02-23 14:16:00,47.6,46.2,29.67,SSE,160,1.0,3.0,95,0.00,,,0.54,Wunderground v.1.15,2013-02-23 19:16:00,
2013-02-23 14:25:00,47.9,46.5,29.67,SSE,160,1.0,1.0,95,0.00,,,0.54,Wunderground v.1.15,2013-02-23 19:25:00,
2013-02-23 14:31:00,47.8,46.4,29.67,SSE,160,1.0,1.0,95,0.00,,,0.54,Wunderground v.1.15,2013-02-23 19:31:00,
2013-02-23 14:40:00,47.8,46.4,29.67,South,169,1.0,1.0,95,0.00,,,0.54,Wunderground v.1.15,2013-02-23 19:40:00,
2013-02-23 14:45:00,47.9,46.5,29.66,South,169,0.0,3.0,95,0.00,,,0.54,Wunderground v.1.15,2013-02-23 19:45:00,
2013-02-23 14:55:00,47.8,46.4,29.66,South,169,1.0,2.0,95,0.00,,,0.54,Wunderground v.1.15,2013-02-23 19:55:00,
2013-02-23 15:00:00,47.9,46.5,29.67,South,169,0.0,0.0,95,0.00,,,0.54,Wunderground v.1.15,2013-02-23 20:00:00,
2013-02-23 15:10:00,48.1,46.7,29.67,SSW,210,2.0,3.0,95,0.00,,,0.54,Wunderground v.1.15,2013-02-23 20:10:00,
2013-02-23 15:16:00,48.2,46.8,29.67,SSW,210,3.0,3.0,95,0.00,,,0.54,Wunderground v.1.15,2013-02-23 20:16:00,
2013-02-23 15:25:00,48.4,47.0,29.67,SSW,210,2.0,3.0,95,0.00,,,0.54,Wunderground v.1.15,2013-02-23 20:25:00,
2013-02-23 15:30:00,48.4,47.0,29.66,SSW,210,1.0,1.0,95,0.00,,,0.54,Wunderground v.1.15,2013-02-23 20:30:00,
2013-02-23 15:35:00,48.3,46.9,29.66,SSW,210,1.0,1.0,95,0.00,,,0.54,Wunderground v.1.15,2013-02-23 20:35:00,
2013-02-23 15:40:00,48.3,46.9,29.65,SSW,210,1.0,1.0,95,0.00,,,0.54,Wunderground v.1.15,2013-02-23 20:40:00,
2013-02-23 15:46:00,48.3,46.9,29.66,SSW,210,0.0,1.0,95,0.00,,,0.54,Wunderground v.1.15,2013-02-23 20:46:00,
2013-02-23 15:55:00,48.3,46.9,29.66,SSW,210,0.0,0.0,95,0.00,,,0.54,Wunderground v.1.15,2013-02-23 20:55:00,
2013-02-23 16:00:00,48.5,47.1,29.65,SSW,210,0.0,0.0,95,0.00,,,0.54,Wunderground v.1.15,2013-02-23 21:00:00,
2013-02-23 16:10:00,48.8,47.4,29.65,SSW,211,1.0,1.0,95,0.00,,,0.54,Wunderground v.1.15,2013-02-23 21:10:00,
2013-02-23 16:16:00,48.6,47.2,29.65,SW,230,1.0,1.0,95,0.00,,,0.54,Wunderground v.1.15,2013-02-23 21:16:00,
2013-02-23 16:25:00,48.7,47.3,29.64,SW,231,1.0,3.0,95,0.00,,,0.54,Wunderground v.1.15,2013-02-23 21:25:00,
2013-02-23 16:31:00,48.5,47.1,29.64,SW,231,1.0,3.0,95,0.00,,,0.54,Wunderground v.1.15,2013-02-23 21:31:00,
2013-02-23 16:40:00,48.3,46.9,29.64,SW,231,2.0,2.0,95,0.00,,,0.54,Wunderground v.1.15,2013-02-23 21:40:00,
2013-02-23 16:46:00,48.3,47.2,29.65,SW,231,1.0,2.0,96,0.00,,,0.54,Wunderground v.1.15,2013-02-23 21:46:00,
2013-02-23 16:51:00,48.2,46.8,29.64,SW,231,1.0,1.0,95,0.00,,,0.54,Wunderground v.1.15,2013-02-23 21:51:00,
2013-02-23 17:00:00,48.2,47.1,29.63,SW,231,0.0,0.0,96,0.00,,,0.54,Wunderground v.1.15,2013-02-23 22:00:00,
2013-02-23 17:05:00,48.3,47.2,29.63,SW,231,0.0,0.0,96,0.00,,,0.54,Wunderground v.1.15,2013-02-23 22:05:00,
2013-02-23 17:10:00,48.4,47.3,29.63,SW,231,0.0,1.0,96,0.00,,,0.54,Wunderground v.1.15,2013-02-23 22:10:00,
2013-02-23 17:16:00,48.5,47.4,29.62,SW,231,1.0,1.0,96,0.00,,,0.54,Wunderground v.1.15,2013-02-23 22:16:00,
2013-02-23 17:25:00,48.5,47.4,29.62,SW,231,1.0,2.0,96,0.00,,,0.54,Wunderground v.1.15,2013-02-23 22:25:00,
2013-02-23 17:31:00,48.5,47.4,29.62,SW,231,1.0,1.0,96,0.00,,,0.54,Wunderground v.1.15,2013-02-23 22:31:00,
2013-02-23 17:41:00,48.4,47.3,29.61,SW,231,0.0,0.0,96,0.00,,,0.54,Wunderground v.1.15,2013-02-23 22:41:00,
2013-02-23 17:46:00,48.4,47.3,29.62,SW,231,0.0,0.0,96,0.00,,,0.54,Wunderground v.1.15,2013-02-23 22:46:00,
2013-02-23 17:55:00,48.3,47.2,29.61,SW,231,0.0,0.0,96,0.00,,,0.54,Wunderground v.1.15,2013-02-23 22:55:00,
2013-02-23 18:01:00,48.3,47.5,29.61,SW,231,0.0,0.0,97,0.00,,,0.54,Wunderground v.1.15,2013-02-23 23:01:00,
2013-02-23 18:10:00,48.3,47.5,29.61,SW,231,0.0,0.0,97,0.00,,,0.54,Wunderground v.1.15,2013-02-23 23:10:00,
2013-02-23 18:16:00,48.2,47.4,29.61,SW,231,0.0,0.0,97,0.00,,,0.54,Wunderground v.1.15,2013-02-23 23:16:00,
2013-02-23 18:21:00,48.2,47.4,29.61,SW,231,0.0,0.0,97,0.00,,,0.54,Wunderground v.1.15,2013-02-23 23:21:00,
2013-02-23 18:30:00,47.9,47.1,29.61,SW,231,1.0,2.0,97,0.00,,,0.54,Wunderground v.1.15,2013-02-23 23:30:00,
2013-02-23 18:35:00,47.7,46.9,29.62,SW,231,1.0,2.0,97,0.00,,,0.54,Wunderground v.1.15,2013-02-23 23:35:00,
2013-02-23 18:46:00,47.5,46.7,29.62,SW,231,1.0,3.0,97,0.00,,,0.54,Wunderground v.1.15,2013-02-23 23:46:00,
2013-02-23 18:56:00,47.3,46.5,29.61,SSW,213,3.0,4.0,97,0.00,,,0.54,Wunderground v.1.15,2013-02-23 23:56:00,
2013-02-23 19:05:00,47.0,46.2,29.63,SSW,206,4.0,4.0,97,0.00,,,0.54,Wunderground v.1.15,2013-02-24 00:05:00,
2013-02-23 19:10:00,47.0,46.2,29.63,SW,217,4.0,4.0,97,0.00,,,0.54,Wunderground v.1.15,2013-02-24 00:10:00,
2013-02-23 19:16:00,47.0,46.2,29.63,SW,217,3.0,4.0,97,0.00,,,0.54,Wunderground v.1.15,2013-02-24 00:16:00,
2013-02-23 19:25:00,46.9,46.1,29.62,SW,217,0.0,1.0,97,0.00,,,0.54,Wunderground v.1.15,2013-02-24 00:25:00,
2013-02-23 19:30:00,46.9,46.1,29.62,SW,217,0.0,0.0,97,0.00,,,0.54,Wunderground v.1.15,2013-02-24 00:30:00,
2013-02-23 19:40:00,46.9,46.1,29.63,SW,217,0.0,0.0,97,0.00,,,0.54,Wunderground v.1.15,2013-02-24 00:40:00,
2013-02-23 19:46:00,46.8,46.0,29.63,SW,217,0.0,0.0,97,0.00,,,0.54,Wunderground v.1.15,2013-02-24 00:46:00,
2013-02-23 19:55:00,46.7,45.9,29.63,SW,217,0.0,0.0,97,0.00,,,0.54,Wunderground v.1.15,2013-02-24 00:55:00,
2013-02-23 20:00:00,46.7,46.2,29.63,SW,217,1.0,1.0,98,0.00,,,0.54,Wunderground v.1.15,2013-02-24 01:00:00,
2013-02-23 20:05:00,46.7,46.2,29.63,SW,217,1.0,1.0,98,0.00,,,0.54,Wunderground v.1.15,2013-02-24 01:05:00,
2013-02-23 20:10:00,46.7,45.9,29.63,SW,217,1.0,3.0,97,0.00,,,0.54,Wunderground v.1.15,2013-02-24 01:10:00,
2013-02-23 20:16:00,46.7,45.9,29.63,SW,217,2.0,3.0,97,0.00,,,0.54,Wunderground v.1.15,2013-02-24 01:16:00,
2013-02-23 20:26:00,46.7,46.2,29.64,SW,217,3.0,4.0,98,0.00,,,0.54,Wunderground v.1.15,2013-02-24 01:26:00,
2013-02-23 20:35:00,46.6,46.1,29.64,SW,217,3.0,3.0,98,0.00,,,0.54,Wunderground v.1.15,2013-02-24 01:35:00,
2013-02-23 20:40:00,46.6,46.1,29.64,SW,217,2.0,3.0,98,0.00,,,0.54,Wunderground v.1.15,2013-02-24 01:40:00,
2013-02-23 20:46:00,46.5,46.0,29.63,SW,217,2.0,3.0,98,0.00,,,0.54,Wunderground v.1.15,2013-02-24 01:46:00,
2013-02-23 20:55:00,46.4,45.9,29.64,SW,217,1.0,3.0,98,0.00,,,0.54,Wunderground v.1.15,2013-02-24 01:55:00,
2013-02-23 21:00:00,46.4,45.9,29.64,SW,217,2.0,2.0,98,0.00,,,0.54,Wunderground v.1.15,2013-02-24 02:00:00,
2013-02-23 21:10:00,46.3,45.8,29.64,SW,218,3.0,3.0,98,0.00,,,0.54,Wunderground v.1.15,2013-02-24 02:10:00,
2013-02-23 21:16:00,46.4,45.9,29.64,SW,218,3.0,3.0,98,0.00,,,0.54,Wunderground v.1.15,2013-02-24 02:16:00,
2013-02-23 21:26:00,46.3,45.8,29.65,SW,220,2.0,2.0,98,0.00,,,0.54,Wunderground v.1.15,2013-02-24 02:26:00,
2013-02-23 21:31:00,46.4,45.9,29.65,SW,228,1.0,3.0,98,0.00,,,0.54,Wunderground v.1.15,2013-02-24 02:31:00,
2013-02-23 21:36:00,46.4,45.9,29.65,WSW,237,1.0,3.0,98,0.00,,,0.54,Wunderground v.1.15,2013-02-24 02:36:00,
2013-02-23 21:45:00,46.4,45.9,29.66,WNW,301,1.0,3.0,98,0.00,,,0.54,Wunderground v.1.15,2013-02-24 02:45:00,
2013-02-23 21:50:00,46.3,45.8,29.66,WSW,249,3.0,5.0,98,0.00,,,0.54,Wunderground v.1.15,2013-02-24 02:50:00,
2013-02-23 21:55:00,46.3,45.8,29.66,NW,305,4.0,5.0,98,0.00,,,0.54,Wunderground v.1.15,2013-02-24 02:55:00,
2013-02-23 22:01:00,46.2,45.7,29.67,West,281,3.0,3.0,98,0.00,,,0.54,Wunderground v.1.15,2013-02-24 03:01:00,
2013-02-23 22:10:00,46.1,45.6,29.67,WNW,294,4.0,4.0,98,0.00,,,0.54,Wunderground v.1.15,2013-02-24 03:10:00,
2013-02-23 22:16:00,46.1,45.6,29.66,WNW,294,5.0,6.0,98,0.00,,,0.54,Wunderground v.1.15,2013-02-24 03:16:00,
2013-02-23 22:26:00,45.9,45.4,29.67,WNW,290,3.0,5.0,98,0.00,,,0.54,Wunderground v.1.15,2013-02-24 03:26:00,
2013-02-23 22:35:00,45.7,45.2,29.67,North,10,2.0,5.0,98,0.00,,,0.54,Wunderground v.1.15,2013-02-24 03:35:00,
2013-02-23 22:40:00,45.7,45.2,29.67,North,10,3.0,3.0,98,0.00,,,0.54,Wunderground v.1.15,2013-02-24 03:40:00,
2013-02-23 22:46:00,45.4,44.9,29.67,North,10,2.0,3.0,98,0.00,,,0.54,Wunderground v.1.15,2013-02-24 03:46:00,
2013-02-23 22:56:00,44.9,44.4,29.67,WNW,291,0.0,1.0,98,0.00,,,0.54,Wunderground v.1.15,2013-02-24 03:56:00,
2013-02-23 23:05:00,44.9,44.4,29.67,WNW,291,0.0,1.0,98,0.00,,,0.54,Wunderground v.1.15,2013-02-24 04:05:00,
2013-02-23 23:10:00,45.0,44.5,29.67,WNW,293,1.0,1.0,98,0.00,,,0.54,Wunderground v.1.15,2013-02-24 04:10:00,
2013-02-23 23:16:00,44.6,44.1,29.67,NW,308,2.0,6.0,98,0.00,,,0.54,Wunderground v.1.15,2013-02-24 04:16:00,
2013-02-23 23:25:00,44.7,44.2,29.66,WNW,284,5.0,7.0,98,0.00,,,0.54,Wunderground v.1.15,2013-02-24 04:25:00,
2013-02-23 23:30:00,45.0,44.5,29.66,WNW,295,5.0,5.0,98,0.00,,,0.54,Wunderground v.1.15,2013-02-24 04:30:00,
2013-02-23 23:35:00,45.1,44.6,29.66,West,272,5.0,5.0,98,0.00,,,0.54,Wunderground v.1.15,2013-02-24 04:35:00,
2013-02-23 23:40:00,45.4,44.9,29.65,WNW,286,4.0,6.0,98,0.00,,,0.54,Wunderground v.1.15,2013-02-24 04:40:00,
2013-02-23 23:46:00,45.6,45.1,29.65,NW,306,3.0,6.0,98,0.00,,,0.54,Wunderground v.1.15,2013-02-24 04:46:00,
2013-02-23 23:56:00,44.2,43.4,29.65,NNE,27,1.0,3.0,97,0.00,,,0.54,Wunderground v.1.15,2013-02-24 04:56:00,